sensor_id;sensor_type;location;lat;lon;timestamp;P1;durP1;ratioP1;P2;durP2;ratioP2
7657;SDS011;8462;53.156;8.220;2023-11-18T00:00:39;13.10;;;9.63;;
7657;SDS011;8462;53.156;8.220;2023-11-18T00:03:08;14.57;;;9.70;;
7657;SDS011;8462;53.156;8.220;2023-11-18T00:05:35;12.53;;;8.90;;
7657;SDS011;8462;53.156;8.220;2023-11-18T00:08:02;13.47;;;9.60;;
7657;SDS011;8462;53.156;8.220;2023-11-18T00:10:29;14.37;;;9.97;;
7657;SDS011;8462;53.156;8.220;2023-11-18T00:12:56;14.27;;;9.53;;
7657;SDS011;8462;53.156;8.220;2023-11-18T00:15:23;14.77;;;10.27;;
7657;SDS011;8462;53.156;8.220;2023-11-18T00:17:51;17.17;;;11.57;;
7657;SDS011;8462;53.156;8.220;2023-11-18T00:20:19;14.07;;;9.77;;
7657;SDS011;8462;53.156;8.220;2023-11-18T00:22:49;14.17;;;10.90;;
7657;SDS011;8462;53.156;8.220;2023-11-18T00:25:16;14.87;;;10.37;;
7657;SDS011;8462;53.156;8.220;2023-11-18T00:27:43;17.90;;;11.93;;
7657;SDS011;8462;53.156;8.220;2023-11-18T00:30:10;31.27;;;17.27;;
7657;SDS011;8462;53.156;8.220;2023-11-18T00:32:37;28.77;;;17.40;;
7657;SDS011;8462;53.156;8.220;2023-11-18T00:35:06;22.83;;;14.23;;
7657;SDS011;8462;53.156;8.220;2023-11-18T00:37:35;12.43;;;10.13;;
7657;SDS011;8462;53.156;8.220;2023-11-18T00:40:02;13.17;;;10.40;;
7657;SDS011;8462;53.156;8.220;2023-11-18T00:42:29;15.23;;;9.33;;
7657;SDS011;8462;53.156;8.220;2023-11-18T00:44:57;13.63;;;9.20;;
7657;SDS011;8462;53.156;8.220;2023-11-18T00:47:25;11.00;;;8.83;;
7657;SDS011;8462;53.156;8.220;2023-11-18T00:49:52;10.93;;;9.27;;
7657;SDS011;8462;53.156;8.220;2023-11-18T00:52:19;13.00;;;10.00;;
7657;SDS011;8462;53.156;8.220;2023-11-18T00:54:47;11.80;;;9.03;;
7657;SDS011;8462;53.156;8.220;2023-11-18T00:57:14;10.53;;;8.90;;
7657;SDS011;8462;53.156;8.220;2023-11-18T00:59:42;13.10;;;10.03;;
7657;SDS011;8462;53.156;8.220;2023-11-18T01:02:09;12.23;;;9.93;;
7657;SDS011;8462;53.156;8.220;2023-11-18T01:04:38;12.00;;;8.67;;
7657;SDS011;8462;53.156;8.220;2023-11-18T01:07:05;11.87;;;8.87;;
7657;SDS011;8462;53.156;8.220;2023-11-18T01:09:33;13.33;;;10.30;;
7657;SDS011;8462;53.156;8.220;2023-11-18T01:12:05;12.03;;;9.13;;
7657;SDS011;8462;53.156;8.220;2023-11-18T01:14:35;13.30;;;9.30;;
7657;SDS011;8462;53.156;8.220;2023-11-18T01:17:04;12.37;;;9.13;;
7657;SDS011;8462;53.156;8.220;2023-11-18T01:19:32;11.97;;;9.13;;
7657;SDS011;8462;53.156;8.220;2023-11-18T01:21:59;12.90;;;9.73;;
7657;SDS011;8462;53.156;8.220;2023-11-18T01:24:30;12.97;;;10.27;;
7657;SDS011;8462;53.156;8.220;2023-11-18T01:26:57;12.07;;;9.73;;
7657;SDS011;8462;53.156;8.220;2023-11-18T01:29:26;12.07;;;9.10;;
7657;SDS011;8462;53.156;8.220;2023-11-18T01:31:53;12.07;;;10.33;;
7657;SDS011;8462;53.156;8.220;2023-11-18T01:34:21;10.60;;;9.03;;
7657;SDS011;8462;53.156;8.220;2023-11-18T01:36:48;12.23;;;9.27;;
7657;SDS011;8462;53.156;8.220;2023-11-18T01:39:15;12.87;;;10.23;;
7657;SDS011;8462;53.156;8.220;2023-11-18T01:41:43;12.07;;;9.70;;
7657;SDS011;8462;53.156;8.220;2023-11-18T01:44:10;14.13;;;9.73;;
7657;SDS011;8462;53.156;8.220;2023-11-18T01:46:40;11.53;;;9.10;;
7657;SDS011;8462;53.156;8.220;2023-11-18T01:49:10;11.57;;;9.60;;
7657;SDS011;8462;53.156;8.220;2023-11-18T01:51:39;12.53;;;9.97;;
7657;SDS011;8462;53.156;8.220;2023-11-18T01:54:06;11.73;;;9.07;;
7657;SDS011;8462;53.156;8.220;2023-11-18T01:56:37;12.33;;;9.07;;
7657;SDS011;8462;53.156;8.220;2023-11-18T01:59:04;12.17;;;9.30;;
7657;SDS011;8462;53.156;8.220;2023-11-18T02:01:34;11.87;;;9.77;;
7657;SDS011;8462;53.156;8.220;2023-11-18T02:04:03;12.83;;;10.20;;
7657;SDS011;8462;53.156;8.220;2023-11-18T02:06:32;12.57;;;10.13;;
7657;SDS011;8462;53.156;8.220;2023-11-18T02:09:01;13.33;;;10.33;;
7657;SDS011;8462;53.156;8.220;2023-11-18T02:11:30;13.60;;;11.07;;
7657;SDS011;8462;53.156;8.220;2023-11-18T02:14:07;15.53;;;11.13;;
7657;SDS011;8462;53.156;8.220;2023-11-18T02:16:39;14.70;;;11.40;;
7657;SDS011;8462;53.156;8.220;2023-11-18T02:19:09;14.63;;;10.73;;
7657;SDS011;8462;53.156;8.220;2023-11-18T02:21:43;14.17;;;10.67;;
7657;SDS011;8462;53.156;8.220;2023-11-18T02:24:20;14.43;;;11.33;;
7657;SDS011;8462;53.156;8.220;2023-11-18T02:26:52;14.40;;;11.40;;
7657;SDS011;8462;53.156;8.220;2023-11-18T02:29:20;15.33;;;11.57;;
7657;SDS011;8462;53.156;8.220;2023-11-18T02:31:47;15.60;;;11.50;;
7657;SDS011;8462;53.156;8.220;2023-11-18T02:34:19;18.37;;;13.43;;
7657;SDS011;8462;53.156;8.220;2023-11-18T02:36:53;18.67;;;12.47;;
7657;SDS011;8462;53.156;8.220;2023-11-18T02:39:27;19.20;;;13.10;;
7657;SDS011;8462;53.156;8.220;2023-11-18T02:42:01;17.40;;;12.40;;
7657;SDS011;8462;53.156;8.220;2023-11-18T02:44:29;19.50;;;13.53;;
7657;SDS011;8462;53.156;8.220;2023-11-18T02:46:58;16.80;;;12.30;;
7657;SDS011;8462;53.156;8.220;2023-11-18T02:49:25;19.63;;;12.90;;
7657;SDS011;8462;53.156;8.220;2023-11-18T02:51:53;21.63;;;14.77;;
7657;SDS011;8462;53.156;8.220;2023-11-18T02:54:20;22.40;;;14.23;;
7657;SDS011;8462;53.156;8.220;2023-11-18T02:56:47;21.53;;;15.57;;
7657;SDS011;8462;53.156;8.220;2023-11-18T02:59:16;22.53;;;14.27;;
7657;SDS011;8462;53.156;8.220;2023-11-18T03:01:43;21.20;;;14.13;;
7657;SDS011;8462;53.156;8.220;2023-11-18T03:04:11;21.20;;;14.67;;
7657;SDS011;8462;53.156;8.220;2023-11-18T03:06:39;23.23;;;15.07;;
7657;SDS011;8462;53.156;8.220;2023-11-18T03:09:07;22.37;;;15.10;;
7657;SDS011;8462;53.156;8.220;2023-11-18T03:11:35;23.73;;;16.07;;
7657;SDS011;8462;53.156;8.220;2023-11-18T03:14:03;23.30;;;15.43;;
7657;SDS011;8462;53.156;8.220;2023-11-18T03:16:37;20.93;;;16.07;;
7657;SDS011;8462;53.156;8.220;2023-11-18T03:19:04;22.17;;;15.83;;
7657;SDS011;8462;53.156;8.220;2023-11-18T03:21:32;22.10;;;15.47;;
7657;SDS011;8462;53.156;8.220;2023-11-18T03:23:59;23.57;;;16.33;;
7657;SDS011;8462;53.156;8.220;2023-11-18T03:26:28;24.73;;;15.67;;
7657;SDS011;8462;53.156;8.220;2023-11-18T03:28:57;24.50;;;17.23;;
7657;SDS011;8462;53.156;8.220;2023-11-18T03:31:23;24.37;;;16.57;;
7657;SDS011;8462;53.156;8.220;2023-11-18T03:33:52;22.67;;;16.80;;
7657;SDS011;8462;53.156;8.220;2023-11-18T03:36:19;24.13;;;17.97;;
7657;SDS011;8462;53.156;8.220;2023-11-18T03:38:46;25.33;;;17.20;;
7657;SDS011;8462;53.156;8.220;2023-11-18T03:41:14;27.77;;;17.50;;
7657;SDS011;8462;53.156;8.220;2023-11-18T03:43:41;27.47;;;18.30;;
7657;SDS011;8462;53.156;8.220;2023-11-18T03:46:10;32.50;;;19.27;;
7657;SDS011;8462;53.156;8.220;2023-11-18T03:48:37;30.80;;;19.23;;
7657;SDS011;8462;53.156;8.220;2023-11-18T03:51:05;39.87;;;21.03;;
7657;SDS011;8462;53.156;8.220;2023-11-18T03:53:32;38.37;;;21.80;;
7657;SDS011;8462;53.156;8.220;2023-11-18T03:56:00;38.30;;;24.20;;
7657;SDS011;8462;53.156;8.220;2023-11-18T03:58:27;50.10;;;25.17;;
7657;SDS011;8462;53.156;8.220;2023-11-18T04:00:54;65.67;;;26.77;;
7657;SDS011;8462;53.156;8.220;2023-11-18T04:03:22;68.70;;;30.00;;
7657;SDS011;8462;53.156;8.220;2023-11-18T04:05:49;63.20;;;28.67;;
7657;SDS011;8462;53.156;8.220;2023-11-18T04:08:17;80.87;;;29.23;;
7657;SDS011;8462;53.156;8.220;2023-11-18T04:10:44;78.07;;;28.97;;
7657;SDS011;8462;53.156;8.220;2023-11-18T04:13:11;108.87;;;30.43;;
7657;SDS011;8462;53.156;8.220;2023-11-18T04:15:38;84.17;;;30.60;;
7657;SDS011;8462;53.156;8.220;2023-11-18T04:18:05;93.80;;;30.63;;
7657;SDS011;8462;53.156;8.220;2023-11-18T04:20:32;102.87;;;31.93;;
7657;SDS011;8462;53.156;8.220;2023-11-18T04:22:59;140.97;;;33.77;;
7657;SDS011;8462;53.156;8.220;2023-11-18T04:25:27;101.93;;;34.07;;
7657;SDS011;8462;53.156;8.220;2023-11-18T04:27:54;141.40;;;35.33;;
7657;SDS011;8462;53.156;8.220;2023-11-18T04:30:21;171.67;;;37.00;;
7657;SDS011;8462;53.156;8.220;2023-11-18T04:32:47;118.33;;;33.27;;
7657;SDS011;8462;53.156;8.220;2023-11-18T04:35:17;136.00;;;35.83;;
7657;SDS011;8462;53.156;8.220;2023-11-18T04:37:44;135.93;;;38.10;;
7657;SDS011;8462;53.156;8.220;2023-11-18T04:40:11;143.33;;;36.43;;
7657;SDS011;8462;53.156;8.220;2023-11-18T04:42:41;138.47;;;39.13;;
7657;SDS011;8462;53.156;8.220;2023-11-18T04:45:10;215.93;;;41.77;;
7657;SDS011;8462;53.156;8.220;2023-11-18T04:47:39;179.83;;;38.93;;
7657;SDS011;8462;53.156;8.220;2023-11-18T04:50:08;170.10;;;39.00;;
7657;SDS011;8462;53.156;8.220;2023-11-18T04:52:36;179.17;;;40.63;;
7657;SDS011;8462;53.156;8.220;2023-11-18T04:55:03;185.00;;;41.90;;
7657;SDS011;8462;53.156;8.220;2023-11-18T04:57:31;220.57;;;48.50;;
7657;SDS011;8462;53.156;8.220;2023-11-18T05:00:00;178.43;;;42.33;;
7657;SDS011;8462;53.156;8.220;2023-11-18T05:02:35;123.97;;;35.57;;
7657;SDS011;8462;53.156;8.220;2023-11-18T05:05:02;185.07;;;41.50;;
7657;SDS011;8462;53.156;8.220;2023-11-18T05:07:31;160.33;;;36.93;;
7657;SDS011;8462;53.156;8.220;2023-11-18T05:09:58;146.77;;;38.23;;
7657;SDS011;8462;53.156;8.220;2023-11-18T05:12:25;195.40;;;40.33;;
7657;SDS011;8462;53.156;8.220;2023-11-18T05:14:54;128.63;;;38.40;;
7657;SDS011;8462;53.156;8.220;2023-11-18T05:17:23;149.87;;;39.20;;
7657;SDS011;8462;53.156;8.220;2023-11-18T05:19:51;202.00;;;44.07;;
7657;SDS011;8462;53.156;8.220;2023-11-18T05:22:18;118.27;;;38.27;;
7657;SDS011;8462;53.156;8.220;2023-11-18T05:24:45;259.07;;;47.70;;
7657;SDS011;8462;53.156;8.220;2023-11-18T05:27:13;146.90;;;41.83;;
7657;SDS011;8462;53.156;8.220;2023-11-18T05:29:40;159.30;;;42.50;;
7657;SDS011;8462;53.156;8.220;2023-11-18T05:32:07;319.50;;;51.33;;
7657;SDS011;8462;53.156;8.220;2023-11-18T05:34:35;179.30;;;43.57;;
7657;SDS011;8462;53.156;8.220;2023-11-18T05:37:03;143.20;;;40.93;;
7657;SDS011;8462;53.156;8.220;2023-11-18T05:39:30;110.00;;;40.43;;
7657;SDS011;8462;53.156;8.220;2023-11-18T05:41:58;172.17;;;42.00;;
7657;SDS011;8462;53.156;8.220;2023-11-18T05:44:25;180.47;;;44.27;;
7657;SDS011;8462;53.156;8.220;2023-11-18T05:46:56;191.07;;;41.50;;
7657;SDS011;8462;53.156;8.220;2023-11-18T05:49:22;152.23;;;39.37;;
7657;SDS011;8462;53.156;8.220;2023-11-18T05:51:51;285.47;;;46.50;;
7657;SDS011;8462;53.156;8.220;2023-11-18T05:54:18;250.10;;;44.80;;
7657;SDS011;8462;53.156;8.220;2023-11-18T05:56:45;241.80;;;50.77;;
7657;SDS011;8462;53.156;8.220;2023-11-18T05:59:13;124.53;;;39.23;;
7657;SDS011;8462;53.156;8.220;2023-11-18T06:01:40;177.67;;;46.60;;
7657;SDS011;8462;53.156;8.220;2023-11-18T06:04:07;190.57;;;43.33;;
7657;SDS011;8462;53.156;8.220;2023-11-18T06:06:35;208.30;;;44.93;;
7657;SDS011;8462;53.156;8.220;2023-11-18T06:09:03;239.83;;;47.00;;
7657;SDS011;8462;53.156;8.220;2023-11-18T06:11:34;163.10;;;44.13;;
7657;SDS011;8462;53.156;8.220;2023-11-18T06:14:02;139.97;;;41.03;;
7657;SDS011;8462;53.156;8.220;2023-11-18T06:16:29;230.73;;;47.30;;
7657;SDS011;8462;53.156;8.220;2023-11-18T06:18:56;126.73;;;42.10;;
7657;SDS011;8462;53.156;8.220;2023-11-18T06:21:24;78.53;;;38.57;;
7657;SDS011;8462;53.156;8.220;2023-11-18T06:23:54;163.70;;;44.03;;
7657;SDS011;8462;53.156;8.220;2023-11-18T06:26:22;121.47;;;40.23;;
7657;SDS011;8462;53.156;8.220;2023-11-18T06:28:49;154.30;;;42.07;;
7657;SDS011;8462;53.156;8.220;2023-11-18T06:31:16;121.07;;;39.97;;
7657;SDS011;8462;53.156;8.220;2023-11-18T06:33:44;88.53;;;37.30;;
7657;SDS011;8462;53.156;8.220;2023-11-18T06:36:16;139.70;;;42.87;;
7657;SDS011;8462;53.156;8.220;2023-11-18T06:38:44;168.70;;;43.27;;
7657;SDS011;8462;53.156;8.220;2023-11-18T06:41:11;130.77;;;40.70;;
7657;SDS011;8462;53.156;8.220;2023-11-18T06:43:43;94.37;;;38.07;;
7657;SDS011;8462;53.156;8.220;2023-11-18T06:46:26;84.23;;;35.90;;
7657;SDS011;8462;53.156;8.220;2023-11-18T06:48:57;92.97;;;37.20;;
7657;SDS011;8462;53.156;8.220;2023-11-18T06:51:24;94.90;;;36.33;;
7657;SDS011;8462;53.156;8.220;2023-11-18T06:53:52;100.20;;;37.97;;
7657;SDS011;8462;53.156;8.220;2023-11-18T06:56:20;93.43;;;37.27;;
7657;SDS011;8462;53.156;8.220;2023-11-18T06:58:48;90.30;;;35.47;;
7657;SDS011;8462;53.156;8.220;2023-11-18T07:01:15;85.60;;;37.87;;
7657;SDS011;8462;53.156;8.220;2023-11-18T07:03:42;99.97;;;35.03;;
7657;SDS011;8462;53.156;8.220;2023-11-18T07:06:10;89.40;;;37.87;;
7657;SDS011;8462;53.156;8.220;2023-11-18T07:08:39;87.83;;;37.07;;
7657;SDS011;8462;53.156;8.220;2023-11-18T07:11:06;87.87;;;37.80;;
7657;SDS011;8462;53.156;8.220;2023-11-18T07:13:33;92.47;;;37.10;;
7657;SDS011;8462;53.156;8.220;2023-11-18T07:16:01;98.33;;;36.67;;
7657;SDS011;8462;53.156;8.220;2023-11-18T07:18:30;86.00;;;37.77;;
7657;SDS011;8462;53.156;8.220;2023-11-18T07:20:58;88.73;;;36.87;;
7657;SDS011;8462;53.156;8.220;2023-11-18T07:23:25;84.50;;;37.17;;
7657;SDS011;8462;53.156;8.220;2023-11-18T07:25:52;90.03;;;36.17;;
7657;SDS011;8462;53.156;8.220;2023-11-18T07:28:19;80.70;;;35.57;;
7657;SDS011;8462;53.156;8.220;2023-11-18T07:30:46;82.40;;;34.23;;
7657;SDS011;8462;53.156;8.220;2023-11-18T07:33:15;81.23;;;37.47;;
7657;SDS011;8462;53.156;8.220;2023-11-18T07:35:42;84.47;;;36.30;;
7657;SDS011;8462;53.156;8.220;2023-11-18T07:38:10;82.03;;;33.57;;
7657;SDS011;8462;53.156;8.220;2023-11-18T07:40:37;78.93;;;35.07;;
7657;SDS011;8462;53.156;8.220;2023-11-18T07:43:07;80.33;;;36.33;;
7657;SDS011;8462;53.156;8.220;2023-11-18T07:45:34;88.63;;;37.50;;
7657;SDS011;8462;53.156;8.220;2023-11-18T07:48:03;78.33;;;36.10;;
7657;SDS011;8462;53.156;8.220;2023-11-18T07:50:33;76.93;;;34.00;;
7657;SDS011;8462;53.156;8.220;2023-11-18T07:53:04;77.57;;;36.17;;
7657;SDS011;8462;53.156;8.220;2023-11-18T07:55:33;79.20;;;36.83;;
7657;SDS011;8462;53.156;8.220;2023-11-18T07:58:00;81.63;;;36.80;;
7657;SDS011;8462;53.156;8.220;2023-11-18T08:00:29;78.17;;;35.03;;
7657;SDS011;8462;53.156;8.220;2023-11-18T08:02:56;85.70;;;37.60;;
7657;SDS011;8462;53.156;8.220;2023-11-18T08:05:25;78.07;;;36.47;;
7657;SDS011;8462;53.156;8.220;2023-11-18T08:07:54;78.47;;;35.63;;
7657;SDS011;8462;53.156;8.220;2023-11-18T08:10:21;76.57;;;35.53;;
7657;SDS011;8462;53.156;8.220;2023-11-18T08:12:50;70.80;;;35.20;;
7657;SDS011;8462;53.156;8.220;2023-11-18T08:15:17;77.23;;;37.27;;
7657;SDS011;8462;53.156;8.220;2023-11-18T08:17:45;68.87;;;34.30;;
7657;SDS011;8462;53.156;8.220;2023-11-18T08:20:11;68.10;;;33.57;;
7657;SDS011;8462;53.156;8.220;2023-11-18T08:22:40;69.73;;;33.97;;
7657;SDS011;8462;53.156;8.220;2023-11-18T08:25:10;64.50;;;34.27;;
7657;SDS011;8462;53.156;8.220;2023-11-18T08:27:38;63.47;;;31.60;;
7657;SDS011;8462;53.156;8.220;2023-11-18T08:30:06;58.10;;;30.33;;
7657;SDS011;8462;53.156;8.220;2023-11-18T08:32:36;55.23;;;29.87;;
7657;SDS011;8462;53.156;8.220;2023-11-18T08:35:04;54.70;;;28.53;;
7657;SDS011;8462;53.156;8.220;2023-11-18T08:37:33;55.23;;;30.17;;
7657;SDS011;8462;53.156;8.220;2023-11-18T08:40:00;51.10;;;29.00;;
7657;SDS011;8462;53.156;8.220;2023-11-18T08:42:29;50.00;;;28.53;;
7657;SDS011;8462;53.156;8.220;2023-11-18T08:44:57;48.47;;;30.63;;
7657;SDS011;8462;53.156;8.220;2023-11-18T08:47:24;44.07;;;27.60;;
7657;SDS011;8462;53.156;8.220;2023-11-18T08:49:51;41.67;;;26.23;;
7657;SDS011;8462;53.156;8.220;2023-11-18T08:52:18;39.80;;;25.50;;
7657;SDS011;8462;53.156;8.220;2023-11-18T08:54:44;39.83;;;24.07;;
7657;SDS011;8462;53.156;8.220;2023-11-18T08:57:25;36.03;;;22.73;;
7657;SDS011;8462;53.156;8.220;2023-11-18T08:59:54;39.97;;;24.70;;
7657;SDS011;8462;53.156;8.220;2023-11-18T09:02:24;41.00;;;24.27;;
7657;SDS011;8462;53.156;8.220;2023-11-18T09:04:50;40.27;;;24.53;;
7657;SDS011;8462;53.156;8.220;2023-11-18T09:07:20;36.93;;;21.33;;
7657;SDS011;8462;53.156;8.220;2023-11-18T09:09:47;35.73;;;20.67;;
7657;SDS011;8462;53.156;8.220;2023-11-18T09:12:17;34.93;;;20.80;;
7657;SDS011;8462;53.156;8.220;2023-11-18T09:14:45;34.80;;;22.17;;
7657;SDS011;8462;53.156;8.220;2023-11-18T09:17:14;31.57;;;20.87;;
7657;SDS011;8462;53.156;8.220;2023-11-18T09:19:42;32.70;;;20.40;;
7657;SDS011;8462;53.156;8.220;2023-11-18T09:22:10;29.13;;;18.70;;
7657;SDS011;8462;53.156;8.220;2023-11-18T09:24:39;52.03;;;32.20;;
7657;SDS011;8462;53.156;8.220;2023-11-18T09:27:07;32.83;;;21.73;;
7657;SDS011;8462;53.156;8.220;2023-11-18T09:29:34;29.63;;;19.27;;
7657;SDS011;8462;53.156;8.220;2023-11-18T09:32:02;29.70;;;18.60;;
7657;SDS011;8462;53.156;8.220;2023-11-18T09:34:32;27.87;;;18.43;;
7657;SDS011;8462;53.156;8.220;2023-11-18T09:36:59;30.97;;;19.23;;
7657;SDS011;8462;53.156;8.220;2023-11-18T09:39:26;27.37;;;18.37;;
7657;SDS011;8462;53.156;8.220;2023-11-18T09:42:03;29.87;;;19.37;;
7657;SDS011;8462;53.156;8.220;2023-11-18T09:44:35;30.10;;;18.90;;
7657;SDS011;8462;53.156;8.220;2023-11-18T09:47:07;30.20;;;18.83;;
7657;SDS011;8462;53.156;8.220;2023-11-18T09:49:42;35.67;;;19.30;;
7657;SDS011;8462;53.156;8.220;2023-11-18T09:52:14;27.80;;;17.90;;
7657;SDS011;8462;53.156;8.220;2023-11-18T09:54:45;31.47;;;18.93;;
7657;SDS011;8462;53.156;8.220;2023-11-18T09:57:23;26.97;;;17.27;;
7657;SDS011;8462;53.156;8.220;2023-11-18T09:59:58;29.13;;;18.40;;
7657;SDS011;8462;53.156;8.220;2023-11-18T10:02:45;27.10;;;18.33;;
7657;SDS011;8462;53.156;8.220;2023-11-18T10:05:16;28.13;;;17.43;;
7657;SDS011;8462;53.156;8.220;2023-11-18T10:07:46;30.00;;;18.57;;
7657;SDS011;8462;53.156;8.220;2023-11-18T10:10:13;30.87;;;18.10;;
7657;SDS011;8462;53.156;8.220;2023-11-18T10:12:41;26.70;;;16.77;;
7657;SDS011;8462;53.156;8.220;2023-11-18T10:15:11;26.03;;;17.30;;
7657;SDS011;8462;53.156;8.220;2023-11-18T10:17:41;29.97;;;17.13;;
7657;SDS011;8462;53.156;8.220;2023-11-18T10:20:22;26.17;;;16.83;;
7657;SDS011;8462;53.156;8.220;2023-11-18T10:23:05;24.27;;;15.90;;
7657;SDS011;8462;53.156;8.220;2023-11-18T10:25:35;25.87;;;17.57;;
7657;SDS011;8462;53.156;8.220;2023-11-18T10:28:06;26.53;;;17.77;;
7657;SDS011;8462;53.156;8.220;2023-11-18T10:30:42;26.73;;;17.27;;
7657;SDS011;8462;53.156;8.220;2023-11-18T10:33:12;23.37;;;16.10;;
7657;SDS011;8462;53.156;8.220;2023-11-18T10:35:49;26.33;;;17.17;;
7657;SDS011;8462;53.156;8.220;2023-11-18T10:38:21;24.77;;;16.30;;
7657;SDS011;8462;53.156;8.220;2023-11-18T10:40:52;25.90;;;16.97;;
7657;SDS011;8462;53.156;8.220;2023-11-18T10:43:20;27.53;;;17.33;;
7657;SDS011;8462;53.156;8.220;2023-11-18T10:45:50;25.50;;;16.77;;
7657;SDS011;8462;53.156;8.220;2023-11-18T10:48:19;27.63;;;16.93;;
7657;SDS011;8462;53.156;8.220;2023-11-18T10:50:47;25.27;;;15.03;;
7657;SDS011;8462;53.156;8.220;2023-11-18T10:53:16;25.23;;;15.07;;
7657;SDS011;8462;53.156;8.220;2023-11-18T10:55:46;28.07;;;16.60;;
7657;SDS011;8462;53.156;8.220;2023-11-18T10:58:15;25.63;;;16.80;;
7657;SDS011;8462;53.156;8.220;2023-11-18T11:00:46;23.97;;;16.87;;
7657;SDS011;8462;53.156;8.220;2023-11-18T11:03:14;24.57;;;16.07;;
7657;SDS011;8462;53.156;8.220;2023-11-18T11:05:43;28.23;;;17.07;;
7657;SDS011;8462;53.156;8.220;2023-11-18T11:08:13;24.33;;;15.80;;
7657;SDS011;8462;53.156;8.220;2023-11-18T11:10:42;29.60;;;19.43;;
7657;SDS011;8462;53.156;8.220;2023-11-18T11:13:09;28.33;;;15.43;;
7657;SDS011;8462;53.156;8.220;2023-11-18T11:15:40;26.40;;;16.00;;
7657;SDS011;8462;53.156;8.220;2023-11-18T11:18:17;25.33;;;16.07;;
7657;SDS011;8462;53.156;8.220;2023-11-18T11:20:53;27.20;;;16.97;;
7657;SDS011;8462;53.156;8.220;2023-11-18T11:23:35;26.60;;;17.07;;
7657;SDS011;8462;53.156;8.220;2023-11-18T11:26:18;37.00;;;16.97;;
7657;SDS011;8462;53.156;8.220;2023-11-18T11:28:58;30.30;;;17.27;;
7657;SDS011;8462;53.156;8.220;2023-11-18T11:31:35;21.43;;;15.83;;
7657;SDS011;8462;53.156;8.220;2023-11-18T11:34:05;29.97;;;15.77;;
7657;SDS011;8462;53.156;8.220;2023-11-18T11:36:37;25.37;;;16.70;;
7657;SDS011;8462;53.156;8.220;2023-11-18T11:39:09;24.80;;;16.50;;
7657;SDS011;8462;53.156;8.220;2023-11-18T11:41:41;30.00;;;19.83;;
7657;SDS011;8462;53.156;8.220;2023-11-18T11:44:11;30.07;;;17.07;;
7657;SDS011;8462;53.156;8.220;2023-11-18T11:46:39;26.73;;;17.20;;
7657;SDS011;8462;53.156;8.220;2023-11-18T11:49:08;25.77;;;16.70;;
7657;SDS011;8462;53.156;8.220;2023-11-18T11:51:46;28.93;;;17.90;;
7657;SDS011;8462;53.156;8.220;2023-11-18T11:54:19;24.97;;;16.20;;
7657;SDS011;8462;53.156;8.220;2023-11-18T11:56:50;30.37;;;17.87;;
7657;SDS011;8462;53.156;8.220;2023-11-18T12:02:22;27.63;;;17.93;;
7657;SDS011;8462;53.156;8.220;2023-11-18T12:04:51;32.50;;;18.87;;
7657;SDS011;8462;53.156;8.220;2023-11-18T12:07:23;26.30;;;18.20;;
7657;SDS011;8462;53.156;8.220;2023-11-18T12:09:56;31.40;;;18.97;;
7657;SDS011;8462;53.156;8.220;2023-11-18T12:12:25;30.60;;;17.07;;
7657;SDS011;8462;53.156;8.220;2023-11-18T12:14:53;32.50;;;19.13;;
7657;SDS011;8462;53.156;8.220;2023-11-18T12:17:21;31.50;;;18.63;;
7657;SDS011;8462;53.156;8.220;2023-11-18T12:19:49;34.90;;;19.10;;
7657;SDS011;8462;53.156;8.220;2023-11-18T12:22:23;28.97;;;18.13;;
7657;SDS011;8462;53.156;8.220;2023-11-18T12:28:14;39.87;;;20.73;;
7657;SDS011;8462;53.156;8.220;2023-11-18T12:30:42;35.50;;;20.57;;
7657;SDS011;8462;53.156;8.220;2023-11-18T12:33:22;32.67;;;19.47;;
7657;SDS011;8462;53.156;8.220;2023-11-18T12:36:17;31.23;;;19.37;;
7657;SDS011;8462;53.156;8.220;2023-11-18T12:42:09;32.33;;;19.33;;
7657;SDS011;8462;53.156;8.220;2023-11-18T12:44:48;34.27;;;20.17;;
7657;SDS011;8462;53.156;8.220;2023-11-18T12:47:39;35.43;;;20.70;;
7657;SDS011;8462;53.156;8.220;2023-11-18T12:50:10;34.27;;;21.37;;
7657;SDS011;8462;53.156;8.220;2023-11-18T12:52:43;36.40;;;20.17;;
7657;SDS011;8462;53.156;8.220;2023-11-18T12:55:11;34.80;;;20.33;;
7657;SDS011;8462;53.156;8.220;2023-11-18T12:57:45;35.13;;;18.80;;
7657;SDS011;8462;53.156;8.220;2023-11-18T13:00:14;34.87;;;20.37;;
7657;SDS011;8462;53.156;8.220;2023-11-18T13:02:51;34.27;;;19.97;;
7657;SDS011;8462;53.156;8.220;2023-11-18T13:05:19;31.93;;;18.47;;
7657;SDS011;8462;53.156;8.220;2023-11-18T13:07:46;40.87;;;21.73;;
7657;SDS011;8462;53.156;8.220;2023-11-18T13:10:14;35.07;;;21.70;;
7657;SDS011;8462;53.156;8.220;2023-11-18T13:12:41;43.93;;;24.77;;
7657;SDS011;8462;53.156;8.220;2023-11-18T13:15:10;38.73;;;20.97;;
7657;SDS011;8462;53.156;8.220;2023-11-18T13:17:39;37.53;;;20.07;;
7657;SDS011;8462;53.156;8.220;2023-11-18T13:20:12;36.87;;;21.00;;
7657;SDS011;8462;53.156;8.220;2023-11-18T13:22:41;38.73;;;22.13;;
7657;SDS011;8462;53.156;8.220;2023-11-18T13:25:08;39.80;;;21.77;;
7657;SDS011;8462;53.156;8.220;2023-11-18T13:27:39;38.10;;;21.57;;
7657;SDS011;8462;53.156;8.220;2023-11-18T13:30:06;35.93;;;19.97;;
7657;SDS011;8462;53.156;8.220;2023-11-18T13:32:41;34.33;;;20.33;;
7657;SDS011;8462;53.156;8.220;2023-11-18T13:35:08;34.00;;;20.57;;
7657;SDS011;8462;53.156;8.220;2023-11-18T13:37:38;36.40;;;20.30;;
7657;SDS011;8462;53.156;8.220;2023-11-18T13:40:07;33.93;;;19.30;;
7657;SDS011;8462;53.156;8.220;2023-11-18T13:42:34;31.13;;;18.87;;
7657;SDS011;8462;53.156;8.220;2023-11-18T13:45:04;29.87;;;19.03;;
7657;SDS011;8462;53.156;8.220;2023-11-18T13:47:37;34.80;;;18.57;;
7657;SDS011;8462;53.156;8.220;2023-11-18T13:50:07;31.27;;;19.03;;
7657;SDS011;8462;53.156;8.220;2023-11-18T13:52:35;34.03;;;20.70;;
7657;SDS011;8462;53.156;8.220;2023-11-18T13:55:05;34.40;;;19.87;;
7657;SDS011;8462;53.156;8.220;2023-11-18T13:57:33;37.10;;;21.07;;
7657;SDS011;8462;53.156;8.220;2023-11-18T14:00:00;31.40;;;19.57;;
7657;SDS011;8462;53.156;8.220;2023-11-18T14:02:31;31.20;;;19.03;;
7657;SDS011;8462;53.156;8.220;2023-11-18T14:04:58;36.50;;;20.30;;
7657;SDS011;8462;53.156;8.220;2023-11-18T14:07:27;30.07;;;18.30;;
7657;SDS011;8462;53.156;8.220;2023-11-18T14:09:54;34.27;;;19.10;;
7657;SDS011;8462;53.156;8.220;2023-11-18T14:12:22;25.20;;;16.47;;
7657;SDS011;8462;53.156;8.220;2023-11-18T14:14:53;27.70;;;17.33;;
7657;SDS011;8462;53.156;8.220;2023-11-18T14:17:21;28.77;;;17.63;;
7657;SDS011;8462;53.156;8.220;2023-11-18T14:19:48;28.43;;;16.57;;
7657;SDS011;8462;53.156;8.220;2023-11-18T14:22:17;27.33;;;17.47;;
7657;SDS011;8462;53.156;8.220;2023-11-18T14:24:45;31.27;;;19.03;;
7657;SDS011;8462;53.156;8.220;2023-11-18T14:27:12;26.97;;;16.67;;
7657;SDS011;8462;53.156;8.220;2023-11-18T14:29:39;32.00;;;18.27;;
7657;SDS011;8462;53.156;8.220;2023-11-18T14:32:06;33.37;;;19.10;;
7657;SDS011;8462;53.156;8.220;2023-11-18T14:34:33;29.03;;;17.40;;
7657;SDS011;8462;53.156;8.220;2023-11-18T14:36:59;26.43;;;17.13;;
7657;SDS011;8462;53.156;8.220;2023-11-18T14:39:27;29.53;;;18.20;;
7657;SDS011;8462;53.156;8.220;2023-11-18T14:41:56;28.30;;;16.60;;
7657;SDS011;8462;53.156;8.220;2023-11-18T14:44:24;29.83;;;17.10;;
7657;SDS011;8462;53.156;8.220;2023-11-18T14:46:51;30.97;;;17.87;;
7657;SDS011;8462;53.156;8.220;2023-11-18T14:49:20;29.47;;;16.40;;
7657;SDS011;8462;53.156;8.220;2023-11-18T14:51:47;33.13;;;18.13;;
7657;SDS011;8462;53.156;8.220;2023-11-18T14:54:14;28.07;;;16.60;;
7657;SDS011;8462;53.156;8.220;2023-11-18T14:56:41;30.43;;;17.20;;
7657;SDS011;8462;53.156;8.220;2023-11-18T14:59:09;29.77;;;17.97;;
7657;SDS011;8462;53.156;8.220;2023-11-18T15:01:37;28.50;;;16.50;;
7657;SDS011;8462;53.156;8.220;2023-11-18T15:04:07;25.83;;;16.67;;
7657;SDS011;8462;53.156;8.220;2023-11-18T15:06:34;30.50;;;16.37;;
7657;SDS011;8462;53.156;8.220;2023-11-18T15:09:01;26.07;;;16.33;;